sensor_id;sensor_type;location;lat;lon;timestamp;P1;durP1;ratioP1;P2;durP2;ratioP2
22531;SDS011;11432;46.924;7.114;2022-09-02T00:00:43;4.50;;;2.78;;
22531;SDS011;11432;46.924;7.114;2022-09-02T00:03:11;5.25;;;3.28;;
22531;SDS011;11432;46.924;7.114;2022-09-02T00:05:37;6.35;;;3.17;;
22531;SDS011;11432;46.924;7.114;2022-09-02T00:08:03;4.20;;;3.13;;
22531;SDS011;11432;46.924;7.114;2022-09-02T00:10:30;4.35;;;3.17;;
22531;SDS011;11432;46.924;7.114;2022-09-02T00:12:57;3.25;;;2.85;;
22531;SDS011;11432;46.924;7.114;2022-09-02T00:15:23;3.78;;;3.08;;
22531;SDS011;11432;46.924;7.114;2022-09-02T00:17:48;4.20;;;3.15;;
22531;SDS011;11432;46.924;7.114;2022-09-02T00:20:14;3.40;;;2.72;;
22531;SDS011;11432;46.924;7.114;2022-09-02T00:22:40;5.00;;;3.17;;
22531;SDS011;11432;46.924;7.114;2022-09-02T00:25:05;4.88;;;3.28;;
22531;SDS011;11432;46.924;7.114;2022-09-02T00:27:32;4.55;;;3.22;;
22531;SDS011;11432;46.924;7.114;2022-09-02T00:29:58;5.15;;;3.17;;
22531;SDS011;11432;46.924;7.114;2022-09-02T00:32:23;4.30;;;3.15;;
22531;SDS011;11432;46.924;7.114;2022-09-02T00:34:49;4.03;;;2.92;;
22531;SDS011;11432;46.924;7.114;2022-09-02T00:37:15;4.13;;;2.97;;
22531;SDS011;11432;46.924;7.114;2022-09-02T00:39:41;4.40;;;3.45;;
22531;SDS011;11432;46.924;7.114;2022-09-02T00:42:07;4.18;;;3.20;;
22531;SDS011;11432;46.924;7.114;2022-09-02T00:44:32;3.67;;;3.28;;
22531;SDS011;11432;46.924;7.114;2022-09-02T00:46:59;4.03;;;3.45;;
22531;SDS011;11432;46.924;7.114;2022-09-02T00:49:29;4.15;;;3.47;;
22531;SDS011;11432;46.924;7.114;2022-09-02T00:54:32;5.78;;;3.72;;
22531;SDS011;11432;46.924;7.114;2022-09-02T00:57:02;6.07;;;3.63;;
22531;SDS011;11432;46.924;7.114;2022-09-02T00:59:42;4.85;;;3.60;;
22531;SDS011;11432;46.924;7.114;2022-09-02T01:02:09;8.75;;;3.58;;
22531;SDS011;11432;46.924;7.114;2022-09-02T01:04:35;4.07;;;3.47;;
22531;SDS011;11432;46.924;7.114;2022-09-02T01:07:01;5.60;;;3.70;;
22531;SDS011;11432;46.924;7.114;2022-09-02T01:09:27;5.10;;;3.88;;
22531;SDS011;11432;46.924;7.114;2022-09-02T01:11:53;4.38;;;3.75;;
22531;SDS011;11432;46.924;7.114;2022-09-02T01:14:19;4.65;;;3.60;;
22531;SDS011;11432;46.924;7.114;2022-09-02T01:16:51;6.82;;;3.65;;
22531;SDS011;11432;46.924;7.114;2022-09-02T01:19:24;4.75;;;3.58;;
22531;SDS011;11432;46.924;7.114;2022-09-02T01:21:58;5.45;;;3.70;;
22531;SDS011;11432;46.924;7.114;2022-09-02T01:24:28;4.75;;;3.63;;
22531;SDS011;11432;46.924;7.114;2022-09-02T01:26:56;6.40;;;3.90;;
22531;SDS011;11432;46.924;7.114;2022-09-02T01:29:23;4.88;;;3.75;;
22531;SDS011;11432;46.924;7.114;2022-09-02T01:31:50;5.57;;;4.15;;
22531;SDS011;11432;46.924;7.114;2022-09-02T01:34:16;4.70;;;3.85;;
22531;SDS011;11432;46.924;7.114;2022-09-02T01:36:42;7.78;;;4.22;;
22531;SDS011;11432;46.924;7.114;2022-09-02T01:39:08;5.47;;;3.70;;
22531;SDS011;11432;46.924;7.114;2022-09-02T01:41:35;4.43;;;3.70;;
22531;SDS011;11432;46.924;7.114;2022-09-02T01:44:01;6.93;;;4.25;;
22531;SDS011;11432;46.924;7.114;2022-09-02T01:46:28;5.63;;;3.60;;
22531;SDS011;11432;46.924;7.114;2022-09-02T01:48:54;4.82;;;3.58;;
22531;SDS011;11432;46.924;7.114;2022-09-02T01:51:20;6.32;;;4.00;;
22531;SDS011;11432;46.924;7.114;2022-09-02T01:53:46;5.10;;;3.88;;
22531;SDS011;11432;46.924;7.114;2022-09-02T01:56:12;4.57;;;3.75;;
22531;SDS011;11432;46.924;7.114;2022-09-02T01:58:38;5.70;;;3.85;;
22531;SDS011;11432;46.924;7.114;2022-09-02T02:01:04;4.35;;;3.58;;
22531;SDS011;11432;46.924;7.114;2022-09-02T02:03:31;7.05;;;3.80;;
22531;SDS011;11432;46.924;7.114;2022-09-02T02:05:57;4.80;;;3.72;;
22531;SDS011;11432;46.924;7.114;2022-09-02T02:08:23;4.60;;;3.67;;
22531;SDS011;11432;46.924;7.114;2022-09-02T02:10:49;5.30;;;4.28;;
22531;SDS011;11432;46.924;7.114;2022-09-02T02:13:15;4.78;;;3.85;;
22531;SDS011;11432;46.924;7.114;2022-09-02T02:15:41;7.00;;;4.10;;
22531;SDS011;11432;46.924;7.114;2022-09-02T02:18:08;5.10;;;3.70;;
22531;SDS011;11432;46.924;7.114;2022-09-02T02:20:34;5.05;;;3.80;;
22531;SDS011;11432;46.924;7.114;2022-09-02T02:23:00;5.25;;;3.88;;
22531;SDS011;11432;46.924;7.114;2022-09-02T02:25:27;5.88;;;3.97;;
22531;SDS011;11432;46.924;7.114;2022-09-02T02:27:52;5.85;;;3.90;;
22531;SDS011;11432;46.924;7.114;2022-09-02T02:30:18;4.82;;;4.15;;
22531;SDS011;11432;46.924;7.114;2022-09-02T02:32:44;5.53;;;4.50;;
22531;SDS011;11432;46.924;7.114;2022-09-02T02:35:14;5.72;;;3.78;;
22531;SDS011;11432;46.924;7.114;2022-09-02T02:37:42;5.43;;;3.92;;
22531;SDS011;11432;46.924;7.114;2022-09-02T02:40:10;6.57;;;4.32;;
22531;SDS011;11432;46.924;7.114;2022-09-02T02:42:36;5.20;;;4.05;;
22531;SDS011;11432;46.924;7.114;2022-09-02T02:45:03;5.63;;;4.15;;
22531;SDS011;11432;46.924;7.114;2022-09-02T02:47:34;5.70;;;3.72;;
22531;SDS011;11432;46.924;7.114;2022-09-02T02:50:03;5.53;;;3.92;;
22531;SDS011;11432;46.924;7.114;2022-09-02T02:52:30;5.22;;;4.13;;
22531;SDS011;11432;46.924;7.114;2022-09-02T02:54:55;6.05;;;4.20;;
22531;SDS011;11432;46.924;7.114;2022-09-02T02:57:21;6.32;;;4.15;;
22531;SDS011;11432;46.924;7.114;2022-09-02T02:59:46;5.95;;;3.88;;
22531;SDS011;11432;46.924;7.114;2022-09-02T03:02:12;5.22;;;3.83;;
22531;SDS011;11432;46.924;7.114;2022-09-02T03:04:38;4.95;;;4.00;;
22531;SDS011;11432;46.924;7.114;2022-09-02T03:07:04;5.20;;;3.80;;
22531;SDS011;11432;46.924;7.114;2022-09-02T03:09:31;5.75;;;4.30;;
22531;SDS011;11432;46.924;7.114;2022-09-02T03:11:57;5.60;;;3.97;;
22531;SDS011;11432;46.924;7.114;2022-09-02T03:14:23;5.38;;;4.45;;
22531;SDS011;11432;46.924;7.114;2022-09-02T03:16:49;5.68;;;4.45;;
22531;SDS011;11432;46.924;7.114;2022-09-02T03:19:14;6.55;;;4.13;;
22531;SDS011;11432;46.924;7.114;2022-09-02T03:21:40;7.22;;;4.18;;
22531;SDS011;11432;46.924;7.114;2022-09-02T03:24:07;5.28;;;3.92;;
22531;SDS011;11432;46.924;7.114;2022-09-02T03:26:34;6.53;;;4.55;;
22531;SDS011;11432;46.924;7.114;2022-09-02T03:29:00;6.55;;;4.13;;
22531;SDS011;11432;46.924;7.114;2022-09-02T03:31:26;9.45;;;4.53;;
22531;SDS011;11432;46.924;7.114;2022-09-02T03:33:52;5.30;;;4.35;;
22531;SDS011;11432;46.924;7.114;2022-09-02T03:36:25;6.68;;;4.40;;
22531;SDS011;11432;46.924;7.114;2022-09-02T03:39:03;6.63;;;3.67;;
22531;SDS011;11432;46.924;7.114;2022-09-02T03:41:29;6.43;;;4.40;;
22531;SDS011;11432;46.924;7.114;2022-09-02T03:43:55;5.18;;;4.22;;
22531;SDS011;11432;46.924;7.114;2022-09-02T03:46:21;5.28;;;4.25;;
22531;SDS011;11432;46.924;7.114;2022-09-02T03:48:47;8.32;;;4.00;;
22531;SDS011;11432;46.924;7.114;2022-09-02T03:51:16;4.85;;;4.15;;
22531;SDS011;11432;46.924;7.114;2022-09-02T03:53:43;4.88;;;4.07;;
22531;SDS011;11432;46.924;7.114;2022-09-02T03:56:09;7.13;;;4.10;;
22531;SDS011;11432;46.924;7.114;2022-09-02T03:58:36;5.47;;;4.47;;
22531;SDS011;11432;46.924;7.114;2022-09-02T04:01:02;5.88;;;4.63;;
22531;SDS011;11432;46.924;7.114;2022-09-02T04:03:28;5.47;;;4.32;;
22531;SDS011;11432;46.924;7.114;2022-09-02T04:05:54;7.75;;;4.53;;
22531;SDS011;11432;46.924;7.114;2022-09-02T04:08:20;5.47;;;4.68;;
22531;SDS011;11432;46.924;7.114;2022-09-02T04:10:46;7.60;;;4.68;;
22531;SDS011;11432;46.924;7.114;2022-09-02T04:13:12;6.05;;;4.60;;
22531;SDS011;11432;46.924;7.114;2022-09-02T04:15:38;6.22;;;4.85;;
22531;SDS011;11432;46.924;7.114;2022-09-02T04:18:09;5.15;;;4.13;;
22531;SDS011;11432;46.924;7.114;2022-09-02T04:20:38;5.82;;;4.30;;
22531;SDS011;11432;46.924;7.114;2022-09-02T04:23:05;5.63;;;4.50;;
22531;SDS011;11432;46.924;7.114;2022-09-02T04:25:31;5.65;;;4.63;;
22531;SDS011;11432;46.924;7.114;2022-09-02T04:27:57;6.28;;;4.45;;
22531;SDS011;11432;46.924;7.114;2022-09-02T04:30:23;6.95;;;4.60;;
22531;SDS011;11432;46.924;7.114;2022-09-02T04:32:49;6.40;;;4.50;;
22531;SDS011;11432;46.924;7.114;2022-09-02T04:35:16;6.55;;;4.80;;
22531;SDS011;11432;46.924;7.114;2022-09-02T04:37:42;6.53;;;4.68;;
22531;SDS011;11432;46.924;7.114;2022-09-02T04:40:11;6.50;;;4.70;;
22531;SDS011;11432;46.924;7.114;2022-09-02T04:42:36;5.50;;;4.40;;
22531;SDS011;11432;46.924;7.114;2022-09-02T04:45:02;6.30;;;4.82;;
22531;SDS011;11432;46.924;7.114;2022-09-02T04:47:28;5.53;;;4.72;;
22531;SDS011;11432;46.924;7.114;2022-09-02T04:49:54;7.82;;;4.93;;
22531;SDS011;11432;46.924;7.114;2022-09-02T04:52:20;6.47;;;4.40;;
22531;SDS011;11432;46.924;7.114;2022-09-02T04:54:46;5.78;;;4.38;;
22531;SDS011;11432;46.924;7.114;2022-09-02T04:57:12;5.97;;;4.47;;
22531;SDS011;11432;46.924;7.114;2022-09-02T04:59:38;7.13;;;5.32;;
22531;SDS011;11432;46.924;7.114;2022-09-02T05:02:04;7.32;;;4.85;;
22531;SDS011;11432;46.924;7.114;2022-09-02T05:04:31;6.95;;;4.80;;
22531;SDS011;11432;46.924;7.114;2022-09-02T05:06:57;6.22;;;4.15;;
22531;SDS011;11432;46.924;7.114;2022-09-02T05:09:25;8.52;;;4.95;;
22531;SDS011;11432;46.924;7.114;2022-09-02T05:11:52;6.65;;;4.68;;
22531;SDS011;11432;46.924;7.114;2022-09-02T05:14:21;9.35;;;5.20;;
22531;SDS011;11432;46.924;7.114;2022-09-02T05:16:48;7.75;;;4.95;;
22531;SDS011;11432;46.924;7.114;2022-09-02T05:19:18;6.82;;;4.75;;
22531;SDS011;11432;46.924;7.114;2022-09-02T05:21:48;6.55;;;5.30;;
22531;SDS011;11432;46.924;7.114;2022-09-02T05:24:15;8.77;;;5.10;;
22531;SDS011;11432;46.924;7.114;2022-09-02T05:26:41;7.75;;;4.68;;
22531;SDS011;11432;46.924;7.114;2022-09-02T05:29:09;8.13;;;5.30;;
22531;SDS011;11432;46.924;7.114;2022-09-02T05:31:36;9.75;;;5.03;;
22531;SDS011;11432;46.924;7.114;2022-09-02T05:34:02;8.38;;;5.05;;
22531;SDS011;11432;46.924;7.114;2022-09-02T05:36:28;6.93;;;4.68;;
22531;SDS011;11432;46.924;7.114;2022-09-02T05:38:56;5.50;;;4.22;;
22531;SDS011;11432;46.924;7.114;2022-09-02T05:41:23;10.07;;;4.50;;
22531;SDS011;11432;46.924;7.114;2022-09-02T05:43:53;8.05;;;5.28;;
22531;SDS011;11432;46.924;7.114;2022-09-02T05:46:21;6.15;;;4.78;;
22531;SDS011;11432;46.924;7.114;2022-09-02T05:48:48;7.32;;;4.80;;
22531;SDS011;11432;46.924;7.114;2022-09-02T05:51:36;5.13;;;4.25;;
22531;SDS011;11432;46.924;7.114;2022-09-02T05:54:32;9.25;;;5.10;;
22531;SDS011;11432;46.924;7.114;2022-09-02T05:57:01;8.55;;;5.22;;
22531;SDS011;11432;46.924;7.114;2022-09-02T05:59:29;8.90;;;4.80;;
22531;SDS011;11432;46.924;7.114;2022-09-02T06:01:56;7.15;;;4.75;;
22531;SDS011;11432;46.924;7.114;2022-09-02T06:04:23;5.97;;;4.82;;
22531;SDS011;11432;46.924;7.114;2022-09-02T06:06:50;6.90;;;4.97;;
22531;SDS011;11432;46.924;7.114;2022-09-02T06:09:17;7.95;;;5.00;;
22531;SDS011;11432;46.924;7.114;2022-09-02T06:11:45;6.50;;;4.70;;
22531;SDS011;11432;46.924;7.114;2022-09-02T06:14:14;7.85;;;4.63;;
22531;SDS011;11432;46.924;7.114;2022-09-02T06:16:41;6.13;;;5.07;;
22531;SDS011;11432;46.924;7.114;2022-09-02T06:19:08;7.80;;;4.88;;
22531;SDS011;11432;46.924;7.114;2022-09-02T06:21:34;5.65;;;4.25;;
22531;SDS011;11432;46.924;7.114;2022-09-02T06:24:03;8.45;;;4.38;;
22531;SDS011;11432;46.924;7.114;2022-09-02T06:35:41;7.13;;;5.07;;
22531;SDS011;11432;46.924;7.114;2022-09-02T06:38:09;6.80;;;5.45;;
22531;SDS011;11432;46.924;7.114;2022-09-02T06:40:36;9.07;;;5.28;;
22531;SDS011;11432;46.924;7.114;2022-09-02T06:43:09;6.57;;;5.05;;
22531;SDS011;11432;46.924;7.114;2022-09-02T06:45:38;9.25;;;6.78;;
22531;SDS011;11432;46.924;7.114;2022-09-02T06:50:30;8.73;;;6.50;;
22531;SDS011;11432;46.924;7.114;2022-09-02T06:52:56;9.07;;;6.05;;
22531;SDS011;11432;46.924;7.114;2022-09-02T06:55:21;8.30;;;6.10;;
22531;SDS011;11432;46.924;7.114;2022-09-02T06:57:47;8.38;;;5.97;;
22531;SDS011;11432;46.924;7.114;2022-09-02T07:00:13;7.95;;;5.53;;
22531;SDS011;11432;46.924;7.114;2022-09-02T07:02:40;11.98;;;6.47;;
22531;SDS011;11432;46.924;7.114;2022-09-02T07:05:08;8.05;;;5.57;;
22531;SDS011;11432;46.924;7.114;2022-09-02T07:07:35;7.50;;;5.75;;
22531;SDS011;11432;46.924;7.114;2022-09-02T07:10:03;9.23;;;6.15;;
22531;SDS011;11432;46.924;7.114;2022-09-02T07:12:30;10.27;;;6.50;;
22531;SDS011;11432;46.924;7.114;2022-09-02T07:14:58;8.55;;;6.07;;
22531;SDS011;11432;46.924;7.114;2022-09-02T07:17:23;9.93;;;5.88;;
22531;SDS011;11432;46.924;7.114;2022-09-02T07:19:49;10.90;;;6.00;;
22531;SDS011;11432;46.924;7.114;2022-09-02T07:22:16;7.38;;;5.85;;
22531;SDS011;11432;46.924;7.114;2022-09-02T07:24:42;13.45;;;6.30;;
22531;SDS011;11432;46.924;7.114;2022-09-02T07:27:08;10.48;;;6.35;;
22531;SDS011;11432;46.924;7.114;2022-09-02T07:29:35;8.75;;;6.85;;
22531;SDS011;11432;46.924;7.114;2022-09-02T07:32:00;9.38;;;5.43;;
22531;SDS011;11432;46.924;7.114;2022-09-02T07:34:26;8.77;;;5.68;;
22531;SDS011;11432;46.924;7.114;2022-09-02T07:36:53;7.28;;;5.53;;
22531;SDS011;11432;46.924;7.114;2022-09-02T07:39:18;7.80;;;6.30;;
22531;SDS011;11432;46.924;7.114;2022-09-02T07:41:45;8.63;;;6.18;;
22531;SDS011;11432;46.924;7.114;2022-09-02T07:44:14;7.53;;;5.07;;
22531;SDS011;11432;46.924;7.114;2022-09-02T07:46:40;7.80;;;6.35;;
22531;SDS011;11432;46.924;7.114;2022-09-02T07:49:07;10.23;;;6.57;;
22531;SDS011;11432;46.924;7.114;2022-09-02T07:51:35;9.25;;;6.78;;
22531;SDS011;11432;46.924;7.114;2022-09-02T07:54:02;8.10;;;6.40;;
22531;SDS011;11432;46.924;7.114;2022-09-02T07:56:29;7.85;;;6.03;;
22531;SDS011;11432;46.924;7.114;2022-09-02T07:58:56;8.20;;;5.90;;
22531;SDS011;11432;46.924;7.114;2022-09-02T08:01:22;9.00;;;6.60;;
22531;SDS011;11432;46.924;7.114;2022-09-02T08:03:47;10.18;;;6.82;;
22531;SDS011;11432;46.924;7.114;2022-09-02T08:06:13;6.85;;;5.45;;
22531;SDS011;11432;46.924;7.114;2022-09-02T08:08:40;8.55;;;5.95;;
22531;SDS011;11432;46.924;7.114;2022-09-02T08:11:06;7.47;;;6.20;;
22531;SDS011;11432;46.924;7.114;2022-09-02T08:13:34;8.95;;;6.55;;
22531;SDS011;11432;46.924;7.114;2022-09-02T08:16:00;8.05;;;6.00;;
22531;SDS011;11432;46.924;7.114;2022-09-02T08:18:27;8.65;;;6.60;;
22531;SDS011;11432;46.924;7.114;2022-09-02T08:20:54;9.60;;;6.10;;
22531;SDS011;11432;46.924;7.114;2022-09-02T08:23:20;11.27;;;6.20;;
22531;SDS011;11432;46.924;7.114;2022-09-02T08:25:45;13.50;;;6.72;;
22531;SDS011;11432;46.924;7.114;2022-09-02T08:28:11;11.50;;;6.97;;
22531;SDS011;11432;46.924;7.114;2022-09-02T08:30:37;10.10;;;6.88;;
22531;SDS011;11432;46.924;7.114;2022-09-02T08:33:04;10.40;;;6.57;;
22531;SDS011;11432;46.924;7.114;2022-09-02T08:35:30;9.40;;;7.10;;
22531;SDS011;11432;46.924;7.114;2022-09-02T08:37:58;9.30;;;6.38;;
22531;SDS011;11432;46.924;7.114;2022-09-02T08:40:27;10.98;;;6.40;;
22531;SDS011;11432;46.924;7.114;2022-09-02T08:42:59;8.13;;;6.05;;
22531;SDS011;11432;46.924;7.114;2022-09-02T08:45:33;8.45;;;7.20;;
22531;SDS011;11432;46.924;7.114;2022-09-02T08:51:10;9.95;;;7.35;;
22531;SDS011;11432;46.924;7.114;2022-09-02T08:53:47;12.07;;;7.03;;
22531;SDS011;11432;46.924;7.114;2022-09-02T08:56:17;7.45;;;5.75;;
22531;SDS011;11432;46.924;7.114;2022-09-02T08:58:44;10.75;;;6.95;;
22531;SDS011;11432;46.924;7.114;2022-09-02T09:04:29;10.32;;;7.70;;
22531;SDS011;11432;46.924;7.114;2022-09-02T09:18:19;9.43;;;6.75;;
22531;SDS011;11432;46.924;7.114;2022-09-02T09:21:01;11.43;;;7.28;;
22531;SDS011;11432;46.924;7.114;2022-09-02T09:23:28;9.10;;;7.50;;
22531;SDS011;11432;46.924;7.114;2022-09-02T09:26:06;10.10;;;7.82;;
22531;SDS011;11432;46.924;7.114;2022-09-02T09:28:40;12.07;;;6.68;;
22531;SDS011;11432;46.924;7.114;2022-09-02T09:31:10;11.18;;;8.10;;
22531;SDS011;11432;46.924;7.114;2022-09-02T09:33:38;9.25;;;6.65;;
22531;SDS011;11432;46.924;7.114;2022-09-02T09:36:05;9.60;;;7.22;;
22531;SDS011;11432;46.924;7.114;2022-09-02T09:38:32;10.60;;;7.35;;
22531;SDS011;11432;46.924;7.114;2022-09-02T09:43:44;8.23;;;6.75;;
22531;SDS011;11432;46.924;7.114;2022-09-02T09:46:26;8.98;;;6.90;;
22531;SDS011;11432;46.924;7.114;2022-09-02T09:48:54;9.90;;;6.63;;
22531;SDS011;11432;46.924;7.114;2022-09-02T09:51:20;9.25;;;6.15;;
22531;SDS011;11432;46.924;7.114;2022-09-02T09:53:46;8.77;;;7.05;;
22531;SDS011;11432;46.924;7.114;2022-09-02T10:01:10;7.82;;;6.50;;
22531;SDS011;11432;46.924;7.114;2022-09-02T10:03:39;8.07;;;6.05;;
22531;SDS011;11432;46.924;7.114;2022-09-02T10:12:10;6.07;;;4.63;;
22531;SDS011;11432;46.924;7.114;2022-09-02T10:14:43;7.05;;;5.47;;
22531;SDS011;11432;46.924;7.114;2022-09-02T10:20:19;7.82;;;5.20;;
22531;SDS011;11432;46.924;7.114;2022-09-02T10:34:52;6.85;;;4.28;;
22531;SDS011;11432;46.924;7.114;2022-09-02T10:37:33;5.88;;;4.50;;
22531;SDS011;11432;46.924;7.114;2022-09-02T10:48:19;8.07;;;5.63;;
22531;SDS011;11432;46.924;7.114;2022-09-02T10:50:54;7.35;;;5.32;;
22531;SDS011;11432;46.924;7.114;2022-09-02T10:53:32;8.10;;;4.45;;
22531;SDS011;11432;46.924;7.114;2022-09-02T10:56:07;9.48;;;6.32;;
22531;SDS011;11432;46.924;7.114;2022-09-02T11:01:42;10.10;;;6.60;;
22531;SDS011;11432;46.924;7.114;2022-09-02T11:07:12;8.75;;;6.30;;
22531;SDS011;11432;46.924;7.114;2022-09-02T11:09:45;6.85;;;5.60;;
22531;SDS011;11432;46.924;7.114;2022-09-02T11:12:24;6.63;;;4.88;;
22531;SDS011;11432;46.924;7.114;2022-09-02T11:14:59;10.70;;;6.07;;
22531;SDS011;11432;46.924;7.114;2022-09-02T11:23:16;5.95;;;4.93;;
22531;SDS011;11432;46.924;7.114;2022-09-02T11:25:59;7.68;;;5.10;;
22531;SDS011;11432;46.924;7.114;2022-09-02T11:37:08;5.72;;;4.32;;
22531;SDS011;11432;46.924;7.114;2022-09-02T11:39:38;5.70;;;3.88;;
22531;SDS011;11432;46.924;7.114;2022-09-02T11:42:19;5.40;;;4.40;;
22531;SDS011;11432;46.924;7.114;2022-09-02T11:50:36;6.60;;;4.90;;
22531;SDS011;11432;46.924;7.114;2022-09-02T11:53:23;6.30;;;4.50;;
22531;SDS011;11432;46.924;7.114;2022-09-02T11:55:57;7.15;;;4.97;;
22531;SDS011;11432;46.924;7.114;2022-09-02T11:58:40;5.85;;;5.05;;
22531;SDS011;11432;46.924;7.114;2022-09-02T12:03:43;5.23;;;4.60;;
22531;SDS011;11432;46.924;7.114;2022-09-02T12:06:15;5.10;;;4.07;;
22531;SDS011;11432;46.924;7.114;2022-09-02T12:14:00;7.43;;;5.15;;
22531;SDS011;11432;46.924;7.114;2022-09-02T12:21:31;5.80;;;4.53;;
22531;SDS011;11432;46.924;7.114;2022-09-02T12:24:01;7.45;;;5.00;;
22531;SDS011;11432;46.924;7.114;2022-09-02T12:29:10;6.60;;;5.50;;
22531;SDS011;11432;46.924;7.114;2022-09-02T12:36:54;6.40;;;4.70;;
22531;SDS011;11432;46.924;7.114;2022-09-02T12:44:42;6.53;;;5.00;;
22531;SDS011;11432;46.924;7.114;2022-09-02T12:55:04;7.45;;;4.85;;
22531;SDS011;11432;46.924;7.114;2022-09-02T12:57:40;6.05;;;4.50;;
22531;SDS011;11432;46.924;7.114;2022-09-02T13:00:11;6.10;;;4.65;;
22531;SDS011;11432;46.924;7.114;2022-09-02T13:02:48;6.40;;;4.28;;
22531;SDS011;11432;46.924;7.114;2022-09-02T13:14:10;6.38;;;5.22;;
22531;SDS011;11432;46.924;7.114;2022-09-02T13:22:37;12.00;;;5.05;;
22531;SDS011;11432;46.924;7.114;2022-09-02T15:32:55;9.77;;;6.60;;
22531;SDS011;11432;46.924;7.114;2022-09-02T15:35:20;6.78;;;5.68;;
22531;SDS011;11432;46.924;7.114;2022-09-02T15:37:48;9.40;;;6.25;;
22531;SDS011;11432;46.924;7.114;2022-09-02T15:40:14;5.05;;;3.85;;
22531;SDS011;11432;46.924;7.114;2022-09-02T15:42:39;6.68;;;2.88;;
22531;SDS011;11432;46.924;7.114;2022-09-02T15:45:06;4.43;;;3.17;;
22531;SDS011;11432;46.924;7.114;2022-09-02T15:47:35;3.92;;;2.72;;
22531;SDS011;11432;46.924;7.114;2022-09-02T15:50:03;4.07;;;2.97;;
22531;SDS011;11432;46.924;7.114;2022-09-02T15:52:32;5.63;;;3.03;;
22531;SDS011;11432;46.924;7.114;2022-09-02T15:54:58;5.53;;;2.90;;
22531;SDS011;11432;46.924;7.114;2022-09-02T15:57:24;3.78;;;2.70;;
22531;SDS011;11432;46.924;7.114;2022-09-02T15:59:50;3.63;;;2.70;;
22531;SDS011;11432;46.924;7.114;2022-09-02T16:02:15;4.88;;;2.97;;
22531;SDS011;11432;46.924;7.114;2022-09-02T16:04:41;6.05;;;3.17;;
22531;SDS011;11432;46.924;7.114;2022-09-02T16:07:07;4.60;;;3.08;;
22531;SDS011;11432;46.924;7.114;2022-09-02T16:09:33;4.30;;;3.20;;
22531;SDS011;11432;46.924;7.114;2022-09-02T16:11:58;4.38;;;2.80;;
22531;SDS011;11432;46.924;7.114;2022-09-02T16:14:24;5.47;;;3.45;;
22531;SDS011;11432;46.924;7.114;2022-09-02T16:16:50;3.90;;;3.10;;
22531;SDS011;11432;46.924;7.114;2022-09-02T16:19:21;3.88;;;3.03;;
22531;SDS011;11432;46.924;7.114;2022-09-02T16:21:48;4.25;;;3.47;;
22531;SDS011;11432;46.924;7.114;2022-09-02T16:24:14;5.90;;;3.22;;
22531;SDS011;11432;46.924;7.114;2022-09-02T16:26:40;5.85;;;2.90;;
22531;SDS011;11432;46.924;7.114;2022-09-02T16:29:07;4.40;;;3.50;;
22531;SDS011;11432;46.924;7.114;2022-09-02T16:31:36;6.38;;;3.65;;
22531;SDS011;11432;46.924;7.114;2022-09-02T16:34:04;4.60;;;3.20;;
22531;SDS011;11432;46.924;7.114;2022-09-02T16:36:35;5.85;;;3.45;;
22531;SDS011;11432;46.924;7.114;2022-09-02T16:39:03;5.45;;;3.95;;
22531;SDS011;11432;46.924;7.114;2022-09-02T16:41:30;5.13;;;3.65;;
22531;SDS011;11432;46.924;7.114;2022-09-02T16:44:04;6.07;;;4.40;;
22531;SDS011;11432;46.924;7.114;2022-09-02T16:46:32;6.60;;;3.70;;
22531;SDS011;11432;46.924;7.114;2022-09-02T16:48:58;4.30;;;3.63;;
22531;SDS011;11432;46.924;7.114;2022-09-02T16:51:24;5.72;;;3.17;;
22531;SDS011;11432;46.924;7.114;2022-09-02T16:53:55;4.28;;;3.42;;
22531;SDS011;11432;46.924;7.114;2022-09-02T16:56:22;3.70;;;2.90;;
22531;SDS011;11432;46.924;7.114;2022-09-02T16:58:48;6.80;;;3.85;;
22531;SDS011;11432;46.924;7.114;2022-09-02T17:01:15;5.95;;;3.25;;
22531;SDS011;11432;46.924;7.114;2022-09-02T17:03:41;7.32;;;4.00;;
22531;SDS011;11432;46.924;7.114;2022-09-02T17:06:08;5.18;;;3.90;;
22531;SDS011;11432;46.924;7.114;2022-09-02T17:08:34;5.35;;;3.70;;
22531;SDS011;11432;46.924;7.114;2022-09-02T17:13:48;3.83;;;2.88;;
22531;SDS011;11432;46.924;7.114;2022-09-02T17:16:25;6.53;;;2.95;;
22531;SDS011;11432;46.924;7.114;2022-09-02T17:18:53;5.83;;;3.00;;
22531;SDS011;11432;46.924;7.114;2022-09-02T17:21:24;5.90;;;3.67;;
22531;SDS011;11432;46.924;7.114;2022-09-02T17:24:03;4.93;;;3.45;;
22531;SDS011;11432;46.924;7.114;2022-09-02T17:26:31;7.38;;;3.63;;
22531;SDS011;11432;46.924;7.114;2022-09-02T17:28:59;3.70;;;3.25;;
22531;SDS011;11432;46.924;7.114;2022-09-02T17:31:26;7.57;;;3.55;;
22531;SDS011;11432;46.924;7.114;2022-09-02T17:33:54;4.97;;;3.42;;
22531;SDS011;11432;46.924;7.114;2022-09-02T17:36:21;5.00;;;3.70;;
22531;SDS011;11432;46.924;7.114;2022-09-02T17:38:47;4.97;;;3.83;;
22531;SDS011;11432;46.924;7.114;2022-09-02T17:41:13;6.65;;;4.68;;
22531;SDS011;11432;46.924;7.114;2022-09-02T17:43:58;7.22;;;4.45;;
22531;SDS011;11432;46.924;7.114;2022-09-02T17:46:24;7.47;;;4.28;;
22531;SDS011;11432;46.924;7.114;2022-09-02T17:48:50;6.97;;;4.20;;
22531;SDS011;11432;46.924;7.114;2022-09-02T17:51:16;6.55;;;4.78;;
22531;SDS011;11432;46.924;7.114;2022-09-02T17:53:43;6.40;;;3.80;;
22531;SDS011;11432;46.924;7.114;2022-09-02T17:59:17;6.82;;;4.13;;
22531;SDS011;11432;46.924;7.114;2022-09-02T18:04:25;7.50;;;4.07;;
22531;SDS011;11432;46.924;7.114;2022-09-02T18:06:56;6.32;;;4.47;;
22531;SDS011;11432;46.924;7.114;2022-09-02T18:09:33;6.85;;;4.00;;
22531;SDS011;11432;46.924;7.114;2022-09-02T18:11:59;7.60;;;4.05;;
22531;SDS011;11432;46.924;7.114;2022-09-02T18:14:37;5.55;;;4.05;;
22531;SDS011;11432;46.924;7.114;2022-09-02T18:17:11;5.15;;;3.88;;
22531;SDS011;11432;46.924;7.114;2022-09-02T18:34:13;6.50;;;4.78;;
22531;SDS011;11432;46.924;7.114;2022-09-02T18:44:52;9.43;;;5.38;;
22531;SDS011;11432;46.924;7.114;2022-09-02T18:50:22;9.70;;;6.45;;
22531;SDS011;11432;46.924;7.114;2022-09-02T18:52:55;10.10;;;5.88;;
22531;SDS011;11432;46.924;7.114;2022-09-02T18:55:26;6.35;;;4.88;;
22531;SDS011;11432;46.924;7.114;2022-09-02T18:58:00;6.05;;;4.82;;
22531;SDS011;11432;46.924;7.114;2022-09-02T19:00:44;5.90;;;4.38;;
22531;SDS011;11432;46.924;7.114;2022-09-02T19:03:15;7.55;;;4.50;;
22531;SDS011;11432;46.924;7.114;2022-09-02T19:05:41;6.68;;;4.75;;
22531;SDS011;11432;46.924;7.114;2022-09-02T19:08:08;8.02;;;4.80;;
22531;SDS011;11432;46.924;7.114;2022-09-02T19:11:04;7.30;;;5.30;;
22531;SDS011;11432;46.924;7.114;2022-09-02T19:13:54;9.48;;;4.55;;
22531;SDS011;11432;46.924;7.114;2022-09-02T19:18:45;6.25;;;4.40;;
22531;SDS011;11432;46.924;7.114;2022-09-02T19:21:13;6.25;;;4.75;;
22531;SDS011;11432;46.924;7.114;2022-09-02T19:23:42;8.95;;;5.32;;
22531;SDS011;11432;46.924;7.114;2022-09-02T19:26:09;7.88;;;5.32;;
22531;SDS011;11432;46.924;7.114;2022-09-02T19:28:36;8.63;;;5.38;;
22531;SDS011;11432;46.924;7.114;2022-09-02T19:31:05;7.13;;;5.57;;
22531;SDS011;11432;46.924;7.114;2022-09-02T19:33:31;9.18;;;5.70;;
22531;SDS011;11432;46.924;7.114;2022-09-02T19:35:59;5.70;;;4.70;;
22531;SDS011;11432;46.924;7.114;2022-09-02T19:38:25;6.63;;;5.10;;
22531;SDS011;11432;46.924;7.114;2022-09-02T19:40:51;8.90;;;5.32;;
22531;SDS011;11432;46.924;7.114;2022-09-02T19:43:18;6.65;;;5.25;;
22531;SDS011;11432;46.924;7.114;2022-09-02T19:45:44;8.15;;;5.15;;
22531;SDS011;11432;46.924;7.114;2022-09-02T19:48:15;7.90;;;4.82;;
22531;SDS011;11432;46.924;7.114;2022-09-02T19:50:42;7.70;;;4.55;;
22531;SDS011;11432;46.924;7.114;2022-09-02T19:53:11;5.88;;;5.00;;
22531;SDS011;11432;46.924;7.114;2022-09-02T19:55:49;6.25;;;4.90;;
22531;SDS011;11432;46.924;7.114;2022-09-02T19:58:15;6.60;;;4.80;;
22531;SDS011;11432;46.924;7.114;2022-09-02T20:00:41;5.90;;;4.45;;